sensor_id;sensor_type;location;lat;lon;timestamp;pressure;altitude;pressure_sealevel;temperature;humidity
28935;BME280;16044;52.726;-2.108;2024-02-23T00:01:14;97277.91;;;1.64;100.00
28935;BME280;16044;52.726;-2.108;2024-02-23T00:03:44;97287.94;;;1.62;100.00
28935;BME280;16044;52.726;-2.108;2024-02-23T00:06:15;97279.56;;;1.65;100.00
28935;BME280;16044;52.726;-2.108;2024-02-23T00:08:45;97276.66;;;1.66;100.00
28935;BME280;16044;52.726;-2.108;2024-02-23T00:11:18;97278.72;;;1.64;100.00
28935;BME280;16044;52.726;-2.108;2024-02-23T00:13:48;97278.72;;;1.64;100.00
28935;BME280;16044;52.726;-2.108;2024-02-23T00:16:19;97277.91;;;1.64;100.00
28935;BME280;16044;52.726;-2.108;2024-02-23T00:18:50;97275.41;;;1.62;100.00
28935;BME280;16044;52.726;-2.108;2024-02-23T00:21:20;97282.81;;;1.60;100.00
28935;BME280;16044;52.726;-2.108;2024-02-23T00:23:50;97279.31;;;1.60;100.00
28935;BME280;16044;52.726;-2.108;2024-02-23T00:26:23;97284.47;;;1.61;100.00
28935;BME280;16044;52.726;-2.108;2024-02-23T00:28:55;97283.22;;;1.64;100.00
28935;BME280;16044;52.726;-2.108;2024-02-23T00:31:25;97287.34;;;1.66;100.00
28935;BME280;16044;52.726;-2.108;2024-02-23T00:33:56;97286.34;;;1.67;100.00
28935;BME280;16044;52.726;-2.108;2024-02-23T00:36:26;97285.91;;;1.64;100.00
28935;BME280;16044;52.726;-2.108;2024-02-23T00:38:57;97292.28;;;1.69;100.00
28935;BME280;16044;52.726;-2.108;2024-02-23T00:41:30;97288.19;;;1.67;100.00
28935;BME280;16044;52.726;-2.108;2024-02-23T00:44:00;97281.63;;;1.69;100.00
28935;BME280;16044;52.726;-2.108;2024-02-23T00:46:30;97285.50;;;1.67;100.00
28935;BME280;16044;52.726;-2.108;2024-02-23T00:49:01;97290.00;;;1.66;100.00
28935;BME280;16044;52.726;-2.108;2024-02-23T00:51:32;97280.75;;;1.62;100.00
28935;BME280;16044;52.726;-2.108;2024-02-23T00:54:02;97277.47;;;1.60;100.00
28935;BME280;16044;52.726;-2.108;2024-02-23T00:56:37;97274.78;;;1.60;100.00
28935;BME280;16044;52.726;-2.108;2024-02-23T00:59:17;97270.50;;;1.59;100.00
28935;BME280;16044;52.726;-2.108;2024-02-23T01:01:48;97261.00;;;1.56;100.00
28935;BME280;16044;52.726;-2.108;2024-02-23T01:04:18;97266.97;;;1.59;100.00
28935;BME280;16044;52.726;-2.108;2024-02-23T01:06:48;97266.78;;;1.60;100.00
28935;BME280;16044;52.726;-2.108;2024-02-23T01:09:19;97260.63;;;1.60;100.00
28935;BME280;16044;52.726;-2.108;2024-02-23T01:11:52;97261.44;;;1.60;100.00
28935;BME280;16044;52.726;-2.108;2024-02-23T01:14:23;97258.38;;;1.63;100.00
28935;BME280;16044;52.726;-2.108;2024-02-23T01:16:53;97257.34;;;1.64;100.00
28935;BME280;16044;52.726;-2.108;2024-02-23T01:19:23;97263.97;;;1.68;100.00
28935;BME280;16044;52.726;-2.108;2024-02-23T01:21:54;97264.34;;;1.72;100.00
28935;BME280;16044;52.726;-2.108;2024-02-23T01:24:27;97261.53;;;1.80;100.00
28935;BME280;16044;52.726;-2.108;2024-02-23T01:27:00;97256.19;;;1.87;100.00
28935;BME280;16044;52.726;-2.108;2024-02-23T01:29:30;97253.75;;;1.92;100.00
28935;BME280;16044;52.726;-2.108;2024-02-23T01:32:01;97245.97;;;1.97;100.00
28935;BME280;16044;52.726;-2.108;2024-02-23T01:34:31;97255.84;;;2.03;100.00
28935;BME280;16044;52.726;-2.108;2024-02-23T01:37:03;97249.69;;;2.09;100.00
28935;BME280;16044;52.726;-2.108;2024-02-23T01:39:33;97244.34;;;2.09;100.00
28935;BME280;16044;52.726;-2.108;2024-02-23T01:42:08;97241.50;;;2.18;100.00
28935;BME280;16044;52.726;-2.108;2024-02-23T01:44:38;97237.38;;;2.22;100.00
28935;BME280;16044;52.726;-2.108;2024-02-23T01:47:09;97230.59;;;2.26;100.00
28935;BME280;16044;52.726;-2.108;2024-02-23T01:49:40;97223.81;;;2.30;100.00
28935;BME280;16044;52.726;-2.108;2024-02-23T01:52:11;97227.31;;;2.37;100.00
28935;BME280;16044;52.726;-2.108;2024-02-23T01:54:42;97217.25;;;2.39;100.00
28935;BME280;16044;52.726;-2.108;2024-02-23T01:57:15;97221.34;;;2.42;100.00
28935;BME280;16044;52.726;-2.108;2024-02-23T02:00:07;97217.28;;;2.46;100.00
28935;BME280;16044;52.726;-2.108;2024-02-23T02:02:43;97218.28;;;2.51;100.00
28935;BME280;16044;52.726;-2.108;2024-02-23T02:05:14;97218.91;;;2.53;100.00
28935;BME280;16044;52.726;-2.108;2024-02-23T02:07:45;97223.44;;;2.60;100.00
28935;BME280;16044;52.726;-2.108;2024-02-23T02:10:17;97221.78;;;2.59;100.00
28935;BME280;16044;52.726;-2.108;2024-02-23T02:12:51;97227.31;;;2.64;100.00
28935;BME280;16044;52.726;-2.108;2024-02-23T02:15:21;97224.03;;;2.62;100.00
28935;BME280;16044;52.726;-2.108;2024-02-23T02:17:51;97222.19;;;2.62;100.00
28935;BME280;16044;52.726;-2.108;2024-02-23T02:20:24;97221.78;;;2.59;100.00
28935;BME280;16044;52.726;-2.108;2024-02-23T02:22:55;97210.88;;;2.60;100.00
28935;BME280;16044;52.726;-2.108;2024-02-23T02:25:26;97214.78;;;2.58;100.00
28935;BME280;16044;52.726;-2.108;2024-02-23T02:27:59;97213.75;;;2.52;100.00
28935;BME280;16044;52.726;-2.108;2024-02-23T02:30:29;97222.59;;;2.52;100.00
28935;BME280;16044;52.726;-2.108;2024-02-23T02:32:59;97223.22;;;2.41;100.00
28935;BME280;16044;52.726;-2.108;2024-02-23T02:35:30;97211.06;;;2.45;100.00
28935;BME280;16044;52.726;-2.108;2024-02-23T02:38:00;97211.94;;;2.46;100.00
28935;BME280;16044;52.726;-2.108;2024-02-23T02:40:31;97208.63;;;2.37;100.00
28935;BME280;16044;52.726;-2.108;2024-02-23T02:43:04;97213.56;;;2.40;100.00
28935;BME280;16044;52.726;-2.108;2024-02-23T02:45:35;97212.09;;;2.38;100.00
28935;BME280;16044;52.726;-2.108;2024-02-23T02:48:07;97216.84;;;2.36;100.00
28935;BME280;16044;52.726;-2.108;2024-02-23T02:50:38;97214.16;;;2.36;100.00
28935;BME280;16044;52.726;-2.108;2024-02-23T02:53:08;97223.00;;;2.36;100.00
28935;BME280;16044;52.726;-2.108;2024-02-23T02:55:41;97221.38;;;2.35;100.00
28935;BME280;16044;52.726;-2.108;2024-02-23T02:58:15;97217.66;;;2.36;100.00
28935;BME280;16044;52.726;-2.108;2024-02-23T03:00:45;97223.00;;;2.36;100.00
28935;BME280;16044;52.726;-2.108;2024-02-23T03:03:15;97216.00;;;2.42;100.00
28935;BME280;16044;52.726;-2.108;2024-02-23T03:05:46;97208.59;;;2.44;100.00
28935;BME280;16044;52.726;-2.108;2024-02-23T03:08:16;97201.44;;;2.44;100.00
28935;BME280;16044;52.726;-2.108;2024-02-23T03:10:46;97204.91;;;2.45;100.00
28935;BME280;16044;52.726;-2.108;2024-02-23T03:13:19;97210.66;;;2.42;100.00
28935;BME280;16044;52.726;-2.108;2024-02-23T03:15:50;97206.56;;;2.39;100.00
28935;BME280;16044;52.726;-2.108;2024-02-23T03:18:20;97203.28;;;2.37;100.00
28935;BME280;16044;52.726;-2.108;2024-02-23T03:20:51;97203.66;;;2.34;100.00
28935;BME280;16044;52.726;-2.108;2024-02-23T03:23:22;97205.13;;;2.30;100.00
28935;BME280;16044;52.726;-2.108;2024-02-23T03:25:53;97195.25;;;2.24;100.00
28935;BME280;16044;52.726;-2.108;2024-02-23T03:28:26;97207.38;;;2.20;100.00
28935;BME280;16044;52.726;-2.108;2024-02-23T03:30:56;97205.72;;;2.19;100.00
28935;BME280;16044;52.726;-2.108;2024-02-23T03:33:27;97204.50;;;2.21;100.00
28935;BME280;16044;52.726;-2.108;2024-02-23T03:35:58;97209.22;;;2.26;100.00
28935;BME280;16044;52.726;-2.108;2024-02-23T03:38:28;97201.63;;;2.29;100.00
28935;BME280;16044;52.726;-2.108;2024-02-23T03:41:01;97191.34;;;2.33;100.00
28935;BME280;16044;52.726;-2.108;2024-02-23T03:43:34;97182.91;;;2.36;100.00
28935;BME280;16044;52.726;-2.108;2024-02-23T03:46:06;97186.00;;;2.40;100.00
28935;BME280;16044;52.726;-2.108;2024-02-23T03:48:36;97180.84;;;2.38;100.00
28935;BME280;16044;52.726;-2.108;2024-02-23T03:51:08;97191.13;;;2.41;100.00
28935;BME280;16044;52.726;-2.108;2024-02-23T03:53:39;97185.78;;;2.41;100.00
28935;BME280;16044;52.726;-2.108;2024-02-23T03:56:09;97190.72;;;2.38;100.00
28935;BME280;16044;52.726;-2.108;2024-02-23T03:58:42;97195.44;;;2.36;100.00
28935;BME280;16044;52.726;-2.108;2024-02-23T04:01:13;97205.94;;;2.30;100.00
28935;BME280;16044;52.726;-2.108;2024-02-23T04:03:43;97207.38;;;2.33;100.00
28935;BME280;16044;52.726;-2.108;2024-02-23T04:06:13;97196.09;;;2.31;100.00
28935;BME280;16044;52.726;-2.108;2024-02-23T04:08:44;97207.97;;;2.28;100.00
28935;BME280;16044;52.726;-2.108;2024-02-23T04:11:16;97198.53;;;2.26;100.00
28935;BME280;16044;52.726;-2.108;2024-02-23T04:13:50;97205.31;;;2.15;100.00
28935;BME280;16044;52.726;-2.108;2024-02-23T04:16:23;97193.78;;;2.08;100.00
28935;BME280;16044;52.726;-2.108;2024-02-23T04:18:54;97202.00;;;2.00;100.00
28935;BME280;16044;52.726;-2.108;2024-02-23T04:21:24;97205.69;;;1.92;100.00
28935;BME280;16044;52.726;-2.108;2024-02-23T04:23:54;97217.19;;;1.86;100.00
28935;BME280;16044;52.726;-2.108;2024-02-23T04:26:25;97216.53;;;1.77;100.00
28935;BME280;16044;52.726;-2.108;2024-02-23T04:28:58;97214.66;;;1.71;100.00
28935;BME280;16044;52.726;-2.108;2024-02-23T04:31:29;97209.72;;;1.68;100.00
28935;BME280;16044;52.726;-2.108;2024-02-23T04:33:59;97219.97;;;1.64;100.00
28935;BME280;16044;52.726;-2.108;2024-02-23T04:36:30;97222.44;;;1.59;100.00
28935;BME280;16044;52.726;-2.108;2024-02-23T04:39:00;97218.50;;;1.55;100.00
28935;BME280;16044;52.726;-2.108;2024-02-23T04:41:31;97219.31;;;1.49;100.00
28935;BME280;16044;52.726;-2.108;2024-02-23T04:44:04;97213.75;;;1.44;100.00
28935;BME280;16044;52.726;-2.108;2024-02-23T04:46:34;97213.13;;;1.42;100.00
28935;BME280;16044;52.726;-2.108;2024-02-23T04:49:05;97218.25;;;1.36;100.00
28935;BME280;16044;52.726;-2.108;2024-02-23T04:51:35;97213.28;;;1.33;100.00
28935;BME280;16044;52.726;-2.108;2024-02-23T04:54:05;97210.19;;;1.30;100.00
28935;BME280;16044;52.726;-2.108;2024-02-23T04:56:36;97207.94;;;1.27;100.00
28935;BME280;16044;52.726;-2.108;2024-02-23T04:59:09;97207.50;;;1.23;100.00
28935;BME280;16044;52.726;-2.108;2024-02-23T05:01:39;97210.56;;;1.20;100.00
28935;BME280;16044;52.726;-2.108;2024-02-23T05:04:09;97207.28;;;1.18;100.00
28935;BME280;16044;52.726;-2.108;2024-02-23T05:06:40;97215.28;;;1.18;100.00
28935;BME280;16044;52.726;-2.108;2024-02-23T05:09:10;97207.66;;;1.15;100.00
28935;BME280;16044;52.726;-2.108;2024-02-23T05:11:41;97210.75;;;1.12;100.00
28935;BME280;16044;52.726;-2.108;2024-02-23T05:14:15;97214.81;;;1.08;100.00
28935;BME280;16044;52.726;-2.108;2024-02-23T05:16:46;97215.63;;;1.08;100.00
28935;BME280;16044;52.726;-2.108;2024-02-23T05:19:16;97222.81;;;1.08;100.00
28935;BME280;16044;52.726;-2.108;2024-02-23T05:21:47;97218.88;;;1.04;100.00
28935;BME280;16044;52.726;-2.108;2024-02-23T05:24:17;97220.91;;;1.02;100.00
28935;BME280;16044;52.726;-2.108;2024-02-23T05:26:47;97223.38;;;0.96;100.00
28935;BME280;16044;52.726;-2.108;2024-02-23T05:29:20;97215.94;;;0.92;100.00
28935;BME280;16044;52.726;-2.108;2024-02-23T05:31:52;97214.69;;;0.88;100.00
28935;BME280;16044;52.726;-2.108;2024-02-23T05:34:22;97225.56;;;0.86;100.00
28935;BME280;16044;52.726;-2.108;2024-02-23T05:36:53;97227.97;;;0.81;100.00
28935;BME280;16044;52.726;-2.108;2024-02-23T05:39:23;97234.34;;;0.80;100.00
28935;BME280;16044;52.726;-2.108;2024-02-23T05:41:53;97224.03;;;0.77;100.00
28935;BME280;16044;52.726;-2.108;2024-02-23T05:44:29;97233.09;;;0.76;100.00
28935;BME280;16044;52.726;-2.108;2024-02-23T05:46:59;97223.41;;;0.75;100.00
28935;BME280;16044;52.726;-2.108;2024-02-23T05:49:29;97229.56;;;0.75;100.00
28935;BME280;16044;52.726;-2.108;2024-02-23T05:52:00;97230.78;;;0.73;100.00
28935;BME280;16044;52.726;-2.108;2024-02-23T05:54:31;97245.16;;;0.72;100.00
28935;BME280;16044;52.726;-2.108;2024-02-23T05:57:01;97249.19;;;0.68;100.00
28935;BME280;16044;52.726;-2.108;2024-02-23T05:59:34;97243.25;;;0.66;100.00
28935;BME280;16044;52.726;-2.108;2024-02-23T06:02:04;97245.91;;;0.66;100.00
28935;BME280;16044;52.726;-2.108;2024-02-23T06:04:35;97254.94;;;0.65;100.00
28935;BME280;16044;52.726;-2.108;2024-02-23T06:07:05;97254.94;;;0.65;100.00
28935;BME280;16044;52.726;-2.108;2024-02-23T06:09:36;97251.66;;;0.63;100.00
28935;BME280;16044;52.726;-2.108;2024-02-23T06:12:07;97254.31;;;0.63;100.00
28935;BME280;16044;52.726;-2.108;2024-02-23T06:14:41;97245.91;;;0.66;100.00
28935;BME280;16044;52.726;-2.108;2024-02-23T06:17:11;97249.81;;;0.70;100.00
28935;BME280;16044;52.726;-2.108;2024-02-23T06:19:42;97252.72;;;0.68;100.00
28935;BME280;16044;52.726;-2.108;2024-02-23T06:22:12;97255.16;;;0.70;100.00
28935;BME280;16044;52.726;-2.108;2024-02-23T06:24:44;97249.19;;;0.68;100.00
28935;BME280;16044;52.726;-2.108;2024-02-23T06:27:14;97259.50;;;0.71;100.00
28935;BME280;16044;52.726;-2.108;2024-02-23T06:29:47;97262.41;;;0.76;100.00
28935;BME280;16044;52.726;-2.108;2024-02-23T06:32:18;97270.00;;;0.79;100.00
28935;BME280;16044;52.726;-2.108;2024-02-23T06:34:48;97271.25;;;0.83;100.00
28935;BME280;16044;52.726;-2.108;2024-02-23T06:37:19;97269.25;;;0.85;100.00
28935;BME280;16044;52.726;-2.108;2024-02-23T06:39:49;97269.47;;;0.90;100.00
28935;BME280;16044;52.726;-2.108;2024-02-23T06:42:21;97275.03;;;0.95;100.00
28935;BME280;16044;52.726;-2.108;2024-02-23T06:44:54;97277.97;;;1.01;100.00
28935;BME280;16044;52.726;-2.108;2024-02-23T06:47:25;97280.03;;;1.05;100.00
28935;BME280;16044;52.726;-2.108;2024-02-23T06:49:55;97276.16;;;1.08;100.00
28935;BME280;16044;52.726;-2.108;2024-02-23T06:52:26;97281.69;;;1.06;100.00
28935;BME280;16044;52.726;-2.108;2024-02-23T06:54:56;97280.03;;;1.05;100.00
28935;BME280;16044;52.726;-2.108;2024-02-23T06:57:26;97285.38;;;1.05;100.00
28935;BME280;16044;52.726;-2.108;2024-02-23T07:00:00;97280.22;;;1.04;100.00
28935;BME280;16044;52.726;-2.108;2024-02-23T07:02:31;97277.56;;;1.04;100.00
28935;BME280;16044;52.726;-2.108;2024-02-23T07:05:04;97281.88;;;1.05;100.00
28935;BME280;16044;52.726;-2.108;2024-02-23T07:07:35;97293.38;;;1.05;100.00
28935;BME280;16044;52.726;-2.108;2024-02-23T07:10:08;97288.66;;;1.07;100.00
28935;BME280;16044;52.726;-2.108;2024-02-23T07:12:40;97284.81;;;1.10;100.00
28935;BME280;16044;52.726;-2.108;2024-02-23T07:15:14;97289.09;;;1.11;100.00
28935;BME280;16044;52.726;-2.108;2024-02-23T07:17:44;97294.06;;;1.14;100.00
28935;BME280;16044;52.726;-2.108;2024-02-23T07:20:16;97285.84;;;1.15;100.00
28935;BME280;16044;52.726;-2.108;2024-02-23T07:22:46;97292.25;;;1.21;100.00
28935;BME280;16044;52.726;-2.108;2024-02-23T07:25:17;97295.13;;;1.26;100.00
28935;BME280;16044;52.726;-2.108;2024-02-23T07:27:48;97289.19;;;1.24;100.00
28935;BME280;16044;52.726;-2.108;2024-02-23T07:30:21;97298.25;;;1.30;100.00
28935;BME280;16044;52.726;-2.108;2024-02-23T07:32:52;97295.34;;;1.25;100.00
28935;BME280;16044;52.726;-2.108;2024-02-23T07:35:22;97288.75;;;1.21;100.00
28935;BME280;16044;52.726;-2.108;2024-02-23T07:37:53;97308.91;;;1.23;100.00
28935;BME280;16044;52.726;-2.108;2024-02-23T07:40:25;97303.56;;;1.23;100.00
28935;BME280;16044;52.726;-2.108;2024-02-23T07:42:55;97308.25;;;1.21;100.00
28935;BME280;16044;52.726;-2.108;2024-02-23T07:45:28;97307.41;;;1.21;100.00
28935;BME280;16044;52.726;-2.108;2024-02-23T07:48:00;97315.03;;;1.24;100.00
28935;BME280;16044;52.726;-2.108;2024-02-23T07:50:31;97318.72;;;1.23;100.00
28935;BME280;16044;52.726;-2.108;2024-02-23T07:53:01;97323.66;;;1.26;100.00
28935;BME280;16044;52.726;-2.108;2024-02-23T07:55:32;97324.13;;;1.29;100.00
28935;BME280;16044;52.726;-2.108;2024-02-23T07:58:02;97324.94;;;1.30;100.00
28935;BME280;16044;52.726;-2.108;2024-02-23T08:00:36;97329.88;;;1.33;100.00
28935;BME280;16044;52.726;-2.108;2024-02-23T08:03:06;97328.28;;;1.39;100.00
28935;BME280;16044;52.726;-2.108;2024-02-23T08:05:37;97339.19;;;1.44;100.00
28935;BME280;16044;52.726;-2.108;2024-02-23T08:08:08;97343.50;;;1.45;100.00
28935;BME280;16044;52.726;-2.108;2024-02-23T08:10:38;97346.41;;;1.50;100.00
28935;BME280;16044;52.726;-2.108;2024-02-23T08:13:09;97350.78;;;1.58;100.00
28935;BME280;16044;52.726;-2.108;2024-02-23T08:15:42;97353.06;;;1.67;100.00
28935;BME280;16044;52.726;-2.108;2024-02-23T08:18:12;97359.31;;;1.81;100.00
28935;BME280;16044;52.726;-2.108;2024-02-23T08:20:42;97366.94;;;1.91;100.00
28935;BME280;16044;52.726;-2.108;2024-02-23T08:23:13;97361.88;;;2.03;100.00
28935;BME280;16044;52.726;-2.108;2024-02-23T08:25:43;97360.47;;;2.13;100.00
28935;BME280;16044;52.726;-2.108;2024-02-23T08:28:14;97365.22;;;2.25;100.00
28935;BME280;16044;52.726;-2.108;2024-02-23T08:30:47;97368.75;;;2.32;100.00
28935;BME280;16044;52.726;-2.108;2024-02-23T08:33:17;97363.66;;;2.37;100.00
28935;BME280;16044;52.726;-2.108;2024-02-23T08:35:47;97369.63;;;2.46;100.00
28935;BME280;16044;52.726;-2.108;2024-02-23T08:38:18;97371.91;;;2.56;100.00
28935;BME280;16044;52.726;-2.108;2024-02-23T08:40:48;97372.34;;;2.66;100.00
28935;BME280;16044;52.726;-2.108;2024-02-23T08:43:19;97369.06;;;2.70;100.00
28935;BME280;16044;52.726;-2.108;2024-02-23T08:45:52;97373.19;;;2.73;100.00
28935;BME280;16044;52.726;-2.108;2024-02-23T08:48:27;97370.72;;;2.85;100.00
28935;BME280;16044;52.726;-2.108;2024-02-23T08:50:58;97374.44;;;2.90;100.00
28935;BME280;16044;52.726;-2.108;2024-02-23T08:53:28;97380.63;;;2.98;100.00
28935;BME280;16044;52.726;-2.108;2024-02-23T08:55:59;97380.84;;;3.03;100.00
28935;BME280;16044;52.726;-2.108;2024-02-23T08:58:29;97385.38;;;3.09;100.00
28935;BME280;16044;52.726;-2.108;2024-02-23T09:01:03;97375.28;;;3.18;100.00
28935;BME280;16044;52.726;-2.108;2024-02-23T09:03:33;97375.88;;;3.26;100.00
28935;BME280;16044;52.726;-2.108;2024-02-23T09:06:04;97377.75;;;3.39;100.00
28935;BME280;16044;52.726;-2.108;2024-02-23T09:08:35;97366.81;;;3.54;100.00
28935;BME280;16044;52.726;-2.108;2024-02-23T09:11:06;97371.31;;;3.67;100.00
28935;BME280;16044;52.726;-2.108;2024-02-23T09:13:38;97367.34;;;3.83;100.00
28935;BME280;16044;52.726;-2.108;2024-02-23T09:16:11;97376.78;;;3.99;100.00
28935;BME280;16044;52.726;-2.108;2024-02-23T09:18:42;97380.88;;;4.15;100.00
28935;BME280;16044;52.726;-2.108;2024-02-23T09:21:12;97388.84;;;4.28;100.00
28935;BME280;16044;52.726;-2.108;2024-02-23T09:23:43;97385.72;;;4.38;100.00
28935;BME280;16044;52.726;-2.108;2024-02-23T09:26:13;97389.16;;;4.52;100.00
28935;BME280;16044;52.726;-2.108;2024-02-23T09:28:45;97403.34;;;4.59;100.00
28935;BME280;16044;52.726;-2.108;2024-02-23T09:31:18;97397.53;;;4.68;100.00
28935;BME280;16044;52.726;-2.108;2024-02-23T09:33:48;97410.31;;;4.73;100.00
28935;BME280;16044;52.726;-2.108;2024-02-23T09:36:19;97400.78;;;4.77;100.00
28935;BME280;16044;52.726;-2.108;2024-02-23T09:38:50;97409.84;;;4.76;100.00
28935;BME280;16044;52.726;-2.108;2024-02-23T09:41:21;97414.00;;;4.72;100.00
28935;BME280;16044;52.726;-2.108;2024-02-23T09:43:54;97405.97;;;4.72;100.00
28935;BME280;16044;52.726;-2.108;2024-02-23T09:46:31;97413.81;;;4.74;100.00
28935;BME280;16044;52.726;-2.108;2024-02-23T09:49:03;97409.25;;;4.74;100.00
28935;BME280;16044;52.726;-2.108;2024-02-23T09:51:36;97414.00;;;4.72;100.00
28935;BME280;16044;52.726;-2.108;2024-02-23T09:54:06;97421.44;;;4.77;100.00
28935;BME280;16044;52.726;-2.108;2024-02-23T09:56:38;97421.00;;;4.80;100.00
28935;BME280;16044;52.726;-2.108;2024-02-23T09:59:09;97422.59;;;4.87;100.00
28935;BME280;16044;52.726;-2.108;2024-02-23T10:01:42;97427.50;;;4.97;100.00
28935;BME280;16044;52.726;-2.108;2024-02-23T10:04:13;97423.75;;;5.05;100.00
28935;BME280;16044;52.726;-2.108;2024-02-23T10:06:44;97434.00;;;5.15;100.00
28935;BME280;16044;52.726;-2.108;2024-02-23T10:09:15;97425.28;;;5.19;100.00
28935;BME280;16044;52.726;-2.108;2024-02-23T10:11:52;97427.72;;;5.27;100.00
28935;BME280;16044;52.726;-2.108;2024-02-23T10:14:23;97432.63;;;5.31;100.00
28935;BME280;16044;52.726;-2.108;2024-02-23T10:16:56;97439.22;;;5.35;100.00
28935;BME280;16044;52.726;-2.108;2024-02-23T10:19:26;97445.38;;;5.42;100.00
28935;BME280;16044;52.726;-2.108;2024-02-23T10:21:57;97444.66;;;5.53;100.00
28935;BME280;16044;52.726;-2.108;2024-02-23T10:24:27;97446.63;;;5.64;100.00
28935;BME280;16044;52.726;-2.108;2024-02-23T10:26:58;97442.63;;;5.74;100.00
28935;BME280;16044;52.726;-2.108;2024-02-23T10:29:30;97442.06;;;5.90;100.00
28935;BME280;16044;52.726;-2.108;2024-02-23T10:32:06;97437.03;;;6.00;100.00
28935;BME280;16044;52.726;-2.108;2024-02-23T10:34:38;97448.53;;;6.08;100.00
28935;BME280;16044;52.726;-2.108;2024-02-23T10:37:12;97444.34;;;6.12;100.00
28935;BME280;16044;52.726;-2.108;2024-02-23T10:39:44;97441.34;;;6.20;100.00
28935;BME280;16044;52.726;-2.108;2024-02-23T10:42:17;97441.53;;;6.25;100.00
28935;BME280;16044;52.726;-2.108;2024-02-23T10:44:50;97452.44;;;6.30;100.00
28935;BME280;16044;52.726;-2.108;2024-02-23T10:47:25;97444.97;;;6.32;100.00
28935;BME280;16044;52.726;-2.108;2024-02-23T10:49:56;97448.25;;;6.34;100.00
28935;BME280;16044;52.726;-2.108;2024-02-23T10:52:32;97454.22;;;6.36;100.00
28935;BME280;16044;52.726;-2.108;2024-02-23T10:55:04;97464.38;;;6.34;100.00
28935;BME280;16044;52.726;-2.108;2024-02-23T10:57:38;97461.69;;;6.34;100.00
28935;BME280;16044;52.726;-2.108;2024-02-23T11:00:10;97470.97;;;6.38;100.00
28935;BME280;16044;52.726;-2.108;2024-02-23T11:02:49;97468.88;;;6.40;100.00
28935;BME280;16044;52.726;-2.108;2024-02-23T11:05:23;97477.69;;;6.48;100.00
28935;BME280;16044;52.726;-2.108;2024-02-23T11:07:55;97476.66;;;6.49;100.00
28935;BME280;16044;52.726;-2.108;2024-02-23T11:10:26;97474.69;;;6.56;100.00
28935;BME280;16044;52.726;-2.108;2024-02-23T11:12:57;97482.31;;;6.59;100.00
28935;BME280;16044;52.726;-2.108;2024-02-23T11:15:30;97482.31;;;6.59;100.00
28935;BME280;16044;52.726;-2.108;2024-02-23T11:18:26;97479.78;;;6.64;100.00
28935;BME280;16044;52.726;-2.108;2024-02-23T11:20:59;97478.13;;;6.63;100.00
28935;BME280;16044;52.726;-2.108;2024-02-23T11:23:40;97478.28;;;6.68;100.00
28935;BME280;16044;52.726;-2.108;2024-02-23T11:26:12;97483.13;;;6.78;100.00
28935;BME280;16044;52.726;-2.108;2024-02-23T11:28:43;97481.25;;;6.78;100.00
28935;BME280;16044;52.726;-2.108;2024-02-23T11:31:20;97475.66;;;6.80;100.00
28935;BME280;16044;52.726;-2.108;2024-02-23T11:33:56;97482.47;;;6.82;100.00
28935;BME280;16044;52.726;-2.108;2024-02-23T11:36:28;97492.75;;;6.86;100.00
28935;BME280;16044;52.726;-2.108;2024-02-23T11:39:00;97488.50;;;6.96;100.00
28935;BME280;16044;52.726;-2.108;2024-02-23T11:41:32;97485.41;;;7.11;100.00
28935;BME280;16044;52.726;-2.108;2024-02-23T11:44:03;97499.50;;;7.25;100.00
28935;BME280;16044;52.726;-2.108;2024-02-23T11:46:34;97500.75;;;7.41;100.00
28935;BME280;16044;52.726;-2.108;2024-02-23T11:49:07;97488.47;;;7.57;100.00
28935;BME280;16044;52.726;-2.108;2024-02-23T11:51:37;97500.34;;;7.68;100.00
28935;BME280;16044;52.726;-2.108;2024-02-23T11:54:08;97488.25;;;7.70;100.00
28935;BME280;16044;52.726;-2.108;2024-02-23T11:56:40;97490.84;;;7.77;100.00
28935;BME280;16044;52.726;-2.108;2024-02-23T11:59:10;97488.50;;;7.80;100.00
28935;BME280;16044;52.726;-2.108;2024-02-23T12:01:41;97482.28;;;7.80;100.00
28935;BME280;16044;52.726;-2.108;2024-02-23T12:04:14;97484.66;;;7.88;100.00
28935;BME280;16044;52.726;-2.108;2024-02-23T12:06:44;97477.16;;;7.90;100.00
28935;BME280;16044;52.726;-2.108;2024-02-23T12:09:15;97476.78;;;7.87;100.00
28935;BME280;16044;52.726;-2.108;2024-02-23T12:11:46;97471.50;;;7.80;100.00
28935;BME280;16044;52.726;-2.108;2024-02-23T12:14:16;97485.91;;;7.74;100.00
28935;BME280;16044;52.726;-2.108;2024-02-23T12:16:47;97489.06;;;7.71;100.00
28935;BME280;16044;52.726;-2.108;2024-02-23T12:19:20;97486.97;;;7.73;100.00
28935;BME280;16044;52.726;-2.108;2024-02-23T12:21:52;97482.03;;;7.70;100.00
28935;BME280;16044;52.726;-2.108;2024-02-23T12:24:25;97488.84;;;7.72;100.00
28935;BME280;16044;52.726;-2.108;2024-02-23T12:26:55;97483.69;;;7.71;100.00
28935;BME280;16044;52.726;-2.108;2024-02-23T12:29:26;97489.06;;;7.71;100.00
28935;BME280;16044;52.726;-2.108;2024-02-23T12:32:03;97484.97;;;7.68;100.00
28935;BME280;16044;52.726;-2.108;2024-02-23T12:34:36;97485.34;;;7.72;100.00
28935;BME280;16044;52.726;-2.108;2024-02-23T12:37:07;97484.97;;;7.68;100.00
28935;BME280;16044;52.726;-2.108;2024-02-23T12:39:38;97490.00;;;7.65;100.00
28935;BME280;16044;52.726;-2.108;2024-02-23T12:42:08;97495.16;;;7.54;100.00
28935;BME280;16044;52.726;-2.108;2024-02-23T12:44:39;97498.16;;;7.46;100.00
28935;BME280;16044;52.726;-2.108;2024-02-23T12:47:12;97492.97;;;7.33;100.00
28935;BME280;16044;52.726;-2.108;2024-02-23T12:49:45;97500.56;;;7.24;100.00
28935;BME280;16044;52.726;-2.108;2024-02-23T12:52:16;97497.94;;;7.17;100.00
28935;BME280;16044;52.726;-2.108;2024-02-23T12:54:46;97492.78;;;7.16;100.00
28935;BME280;16044;52.726;-2.108;2024-02-23T12:57:18;97495.00;;;7.07;100.00
28935;BME280;16044;52.726;-2.108;2024-02-23T12:59:49;97500.00;;;7.03;100.00
28935;BME280;16044;52.726;-2.108;2024-02-23T13:02:19;97497.97;;;6.99;100.00
28935;BME280;16044;52.726;-2.108;2024-02-23T13:04:53;97503.09;;;6.89;100.00
28935;BME280;16044;52.726;-2.108;2024-02-23T13:07:23;97508.53;;;6.82;100.00
28935;BME280;16044;52.726;-2.108;2024-02-23T13:09:57;97505.34;;;6.73;100.00
28935;BME280;16044;52.726;-2.108;2024-02-23T13:12:27;97500.25;;;6.65;100.00